This is the latest recevied weather packets stored in our database for station/object KK7PZE-13. If no packets are shown the sender has not sent any weather packets the latest 1 day(s).
| Time | Temp. | Humidity | Pressure | Rain* | Wind** | Luminosity | Snow |
|---|---|---|---|---|---|---|---|
| 1777984902 | 14.44° C | 76% | 1010.4 hPa | 0 mm | 0 m/s | - | - |
| 1777984728 | 14.44° C | 76% | 1010.4 hPa | 0 mm | 0 m/s | - | - |
| 1777984131 | 13.89° C | 78% | 1010.4 hPa | 0 mm | 0 m/s | - | - |
| 1777982328 | 13.33° C | 81% | 1010.1 hPa | 0 mm | 0 m/s | - | - |
| 1777981728 | 13.89° C | 79% | 1009.8 hPa | 0 mm | 0 m/s | - | - |
| 1777981128 | 13.89° C | 78% | 1010.2 hPa | 0 mm | 0 m/s | - | - |
| 1777980528 | 14.44° C | 77% | 1010.2 hPa | 0 mm | 0.45 m/s, 91° | - | - |
| 1777979928 | 14.44° C | 77% | 1010.3 hPa | 0 mm | 0.89 m/s, 93° | - | - |
| 1777979328 | 14.44° C | 77% | 1010.8 hPa | 0 mm | 0 m/s | - | - |
| 1777978728 | 14.44° C | 76% | 1010.9 hPa | 0 mm | 0.45 m/s, 88° | - | - |
| 1777978377 | 15° C | 76% | 1010.9 hPa | 0 mm | 0.89 m/s, 108° | - | - |
| 1777978129 | 15° C | 76% | 1010.9 hPa | 0 mm | 0.89 m/s, 108° | - | - |
| 1777977528 | 15° C | 73% | 1010.8 hPa | 0 mm | 0.45 m/s, 107° | - | - |
| 1777977158 | 15° C | 72% | 1011 hPa | 0 mm | 0.45 m/s, 74° | - | - |
| 1777977049 | 15° C | 72% | 1011 hPa | 0 mm | 0.45 m/s, 74° | - | - |
| 1777976928 | 15° C | 72% | 1011 hPa | 0 mm | 0.45 m/s, 74° | - | - |
| 1777976583 | 15° C | 71% | 1011.1 hPa | 0 mm | 1.79 m/s, 129° | - | - |
| 1777976329 | 15° C | 71% | 1011.1 hPa | 0 mm | 1.79 m/s, 129° | - | - |
| 1777976297 | 15° C | 70% | 1011.1 hPa | 0 mm | 1.79 m/s, 117° | - | - |
| 1777975729 | 15° C | 70% | 1011.1 hPa | 0 mm | 1.79 m/s, 117° | - | - |
| 1777975130 | 15° C | 70% | 1011.4 hPa | 0 mm | 1.34 m/s, 81° | - | - |
| 1777974549 | 15.56° C | 68% | 1011.4 hPa | 0 mm | 3.58 m/s, 193° | - | - |
| 1777973929 | 15.56° C | 66% | 1011.6 hPa | 0 mm | 1.79 m/s, 151° | - | - |
| 1777973527 | 16.11° C | 63% | 1011.4 hPa | 0 mm | 1.79 m/s, 113° | - | - |
| 1777973329 | 16.11° C | 63% | 1011.4 hPa | 0 mm | 1.79 m/s, 113° | - | - |
* Rain latest hour (hover to see other rain measurements)
** Current wind speed in m/s (hover to see current wind gust speed)